Time;durP1;ratioP1;P1;durP2;ratioP2;P2;SDS_P1;SDS_P2;PMS_P1;PMS_P2;Temp;Humidity;BMP_temperature;BMP_pressure;BME280_temperature;BME280_humidity;BME280_pressure;Samples;Min_cycle;Max_cycle;Signal;HPM_P1;HPM_P2
2022/12/24 00:01:56;;;;;;;2.40;1.00;;;11.30;78.20;;;;;;4971336;28;46553;-65
2022/12/24 00:04:21;;;;;;;2.40;1.20;;;11.30;78.20;;;;;;4971215;28;46435;-64
2022/12/24 00:06:47;;;;;;;2.90;1.00;;;11.40;78.20;;;;;;4972868;28;46594;-64
2022/12/24 00:09:12;;;;;;;3.87;1.30;;;11.30;78.20;;;;;;4971554;28;47698;-64
2022/12/24 00:11:38;;;;;;;2.00;1.10;;;11.30;78.20;;;;;;4969649;28;46457;-64
2022/12/24 00:14:04;;;;;;;1.53;0.80;;;11.30;78.20;;;;;;4973338;28;46471;-65
2022/12/24 00:16:30;;;;;;;3.67;1.20;;;11.30;78.20;;;;;;4969536;28;46397;-64
2022/12/24 00:18:56;;;;;;;1.40;0.80;;;11.30;77.80;;;;;;4970870;28;46652;-64
2022/12/24 00:21:21;;;;;;;2.50;0.93;;;11.30;77.50;;;;;;4968796;28;46417;-64
2022/12/24 00:23:47;;;;;;;3.00;0.93;;;11.30;77.30;;;;;;4984239;28;46452;-64
2022/12/24 00:26:13;;;;;;;4.40;1.40;;;11.30;77.10;;;;;;4987293;28;46609;-64
2022/12/24 00:28:40;;;;;;;2.07;1.20;;;11.40;77.00;;;;;;4970819;28;46507;-64
2022/12/24 00:31:14;;;;;;;2.63;1.07;;;11.30;76.90;;;;;;4970632;28;46440;-66
2022/12/24 00:33:40;;;;;;;1.60;0.80;;;11.30;76.80;;;;;;4973039;28;45951;-64
2022/12/24 00:36:06;;;;;;;2.37;1.00;;;11.30;76.80;;;;;;4971582;28;46570;-64
2022/12/24 00:38:32;;;;;;;2.50;1.10;;;11.20;76.60;;;;;;4985705;28;47685;-64
2022/12/24 00:41:00;;;;;;;3.60;1.20;;;11.10;76.40;;;;;;4975765;28;46425;-63
2022/12/24 00:43:25;;;;;;;2.70;0.90;;;11.00;76.70;;;;;;4974041;28;46560;-63
2022/12/24 00:45:51;;;;;;;1.50;0.93;;;11.00;77.10;;;;;;4970698;28;46439;-63
2022/12/24 00:48:16;;;;;;;1.33;0.83;;;10.90;77.20;;;;;;4974754;28;46424;-64
2022/12/24 00:50:42;;;;;;;1.90;1.00;;;10.90;77.10;;;;;;4974819;28;46434;-63
2022/12/24 00:53:08;;;;;;;2.40;1.17;;;10.80;77.10;;;;;;4975129;28;46518;-63
2022/12/24 00:55:33;;;;;;;2.33;1.13;;;10.80;76.90;;;;;;4972760;28;46483;-63
2022/12/24 00:57:59;;;;;;;2.70;1.10;;;10.70;76.90;;;;;;4974506;28;47177;-63
2022/12/24 01:00:24;;;;;;;2.23;1.23;;;10.70;77.00;;;;;;4971146;28;46403;-63
2022/12/24 01:02:50;;;;;;;3.03;1.10;;;10.70;78.30;;;;;;4970801;28;46452;-62
2022/12/24 01:05:19;;;;;;;3.67;1.00;;;10.60;77.10;;;;;;4970612;28;46656;-64
2022/12/24 01:07:45;;;;;;;1.87;1.00;;;10.60;77.30;;;;;;4986015;28;46606;-63
2022/12/24 01:10:13;;;;;;;2.20;1.23;;;10.70;77.10;;;;;;4972035;28;46474;-63
2022/12/24 01:12:39;;;;;;;1.80;1.10;;;10.70;75.80;;;;;;4972997;28;46478;-63
2022/12/24 01:15:06;;;;;;;3.33;1.20;;;10.70;76.90;;;;;;4967617;28;46418;-62
2022/12/24 01:17:33;;;;;;;3.63;1.37;;;10.70;76.70;;;;;;4967737;28;46737;-63
2022/12/24 01:19:58;;;;;;;5.70;1.20;;;10.70;76.60;;;;;;4971392;28;46469;-64
2022/12/24 01:22:24;;;;;;;2.00;1.10;;;;;;;;;;4975056;28;45823;-64
2022/12/24 01:24:50;;;;;;;3.00;1.40;;;10.70;75.40;;;;;;4982855;28;46426;-65
2022/12/24 01:27:16;;;;;;;3.13;1.00;;;10.70;76.40;;;;;;4970333;28;46505;-64
2022/12/24 01:29:41;;;;;;;2.43;1.30;;;10.70;76.60;;;;;;4972155;28;46442;-63
2022/12/24 01:32:07;;;;;;;6.40;1.33;;;10.70;76.50;;;;;;4970740;28;46700;-65
2022/12/24 01:34:32;;;;;;;1.97;1.30;;;10.70;76.50;;;;;;4969155;28;46666;-64
2022/12/24 01:36:58;;;;;;;3.00;1.20;;;10.70;76.50;;;;;;4968300;28;46835;-65
2022/12/24 01:39:24;;;;;;;4.93;1.30;;;10.70;76.50;;;;;;4970146;28;46438;-65
2022/12/24 01:44:38;;;;;;;5.90;1.10;;;10.70;76.20;;;;;;4970798;28;46434;-63
2022/12/24 01:47:27;;;;;;;5.13;1.00;;;10.70;76.10;;;;;;4969252;28;47336;-64
2022/12/24 01:49:55;;;;;;;2.50;1.20;;;10.70;76.10;;;;;;4969006;28;46399;-65
2022/12/24 01:52:27;;;;;;;2.70;1.37;;;10.70;76.00;;;;;;4969408;28;46522;-65
2022/12/24 01:55:12;;;;;;;5.60;1.50;;;10.70;76.20;;;;;;4970421;28;46449;-64
2022/12/24 01:57:47;;;;;;;5.50;1.33;;;10.70;76.00;;;;;;4971228;28;47380;-64
2022/12/24 02:00:14;;;;;;;2.27;1.30;;;10.70;76.10;;;;;;4968519;28;46357;-62
2022/12/24 02:02:43;;;;;;;2.50;1.53;;;10.70;75.40;;;;;;4970701;28;46730;-64
2022/12/24 02:05:25;;;;;;;3.27;1.30;;;10.70;76.40;;;;;;4971173;28;46566;-62
2022/12/24 02:07:51;;;;;;;2.33;1.00;;;10.60;76.40;;;;;;4969705;28;46500;-63
2022/12/24 02:10:17;;;;;;;2.50;1.07;;;10.60;76.40;;;;;;4969945;28;46376;-62
2022/12/24 02:12:45;;;;;;;2.20;1.10;;;10.60;75.50;;;;;;4970215;28;46390;-64
2022/12/24 02:15:13;;;;;;;3.10;1.50;;;10.60;76.60;;;;;;4969595;28;46006;-63
2022/12/24 02:17:50;;;;;;;1.80;1.00;;;10.50;76.40;;;;;;4972133;28;46761;-63
2022/12/24 02:20:45;;;;;;;1.70;1.00;;;10.50;76.40;;;;;;4969499;28;46490;-63
2022/12/24 02:23:19;;;;;;;3.67;1.37;;;10.50;76.50;;;;;;4968087;28;46408;-63
2022/12/24 02:26:19;;;;;;;3.93;1.17;;;10.40;76.60;;;;;;4969048;28;46454;-63
2022/12/24 02:28:56;;;;;;;3.50;1.20;;;10.50;76.60;;;;;;4971812;28;46605;-62
2022/12/24 02:31:28;;;;;;;2.50;1.00;;;10.40;76.40;;;;;;4971927;28;46356;-64
2022/12/24 02:34:03;;;;;;;3.13;2.03;;;10.40;76.50;;;;;;4969920;28;46495;-63
2022/12/24 02:36:35;;;;;;;3.17;1.20;;;10.40;76.60;;;;;;4968211;28;46337;-62
2022/12/24 02:39:29;;;;;;;2.13;1.03;;;10.40;76.50;;;;;;4969353;28;46511;-62
2022/12/24 02:42:06;;;;;;;5.13;1.20;;;10.40;76.30;;;;;;4968523;28;46388;-62
2022/12/24 02:44:57;;;;;;;5.23;1.20;;;10.30;76.20;;;;;;4967362;28;46476;-63
2022/12/24 02:47:26;;;;;;;6.90;1.40;;;10.30;75.90;;;;;;4965675;28;46454;-64
2022/12/24 02:49:52;;;;;;;6.10;1.30;;;10.30;75.90;;;;;;4969755;28;46298;-63
2022/12/24 02:52:47;;;;;;;7.53;1.40;;;10.30;75.80;;;;;;4966982;28;46411;-63
2022/12/24 02:55:21;;;;;;;5.50;1.20;;;10.30;75.80;;;;;;4957706;28;46619;-63
2022/12/24 02:58:17;;;;;;;3.23;1.37;;;10.30;75.70;;;;;;4967100;28;45918;-65
2022/12/24 03:01:17;;;;;;;7.70;1.40;;;10.30;75.80;;;;;;4969604;28;47766;-63
2022/12/24 03:03:55;;;;;;;2.80;1.00;;;10.30;75.60;;;;;;4966929;28;46431;-61
2022/12/24 03:06:44;;;;;;;4.93;1.40;;;10.30;75.30;;;;;;4970395;28;45893;-63
2022/12/24 03:09:18;;;;;;;5.87;1.40;;;10.30;75.20;;;;;;4968512;28;46501;-62
2022/12/24 03:11:50;;;;;;;3.90;1.83;;;10.30;75.20;;;;;;4968080;28;46368;-62
2022/12/24 03:14:16;;;;;;;4.40;1.20;;;10.30;75.20;;;;;;4966118;28;46851;-62
2022/12/24 03:16:43;;;;;;;3.20;1.40;;;10.30;75.10;;;;;;4969064;28;46212;-63
2022/12/24 03:19:09;;;;;;;2.77;1.30;;;10.30;75.00;;;;;;4982814;28;46568;-63
2022/12/24 03:21:38;;;;;;;5.43;1.40;;;10.30;74.90;;;;;;4970790;28;46683;-62
2022/12/24 03:24:04;;;;;;;2.00;1.07;;;10.40;74.90;;;;;;4966882;28;46219;-63
2022/12/24 03:26:31;;;;;;;1.93;1.30;;;10.40;74.80;;;;;;4968809;28;46405;-63
2022/12/24 03:28:57;;;;;;;4.53;1.40;;;10.40;74.80;;;;;;4967808;28;46405;-66
2022/12/24 03:31:23;;;;;;;4.63;1.57;;;10.40;74.70;;;;;;4972928;28;46469;-64
2022/12/24 03:33:49;;;;;;;3.30;1.27;;;10.40;74.70;;;;;;4968521;28;46433;-62
2022/12/24 03:36:15;;;;;;;3.27;1.50;;;10.40;74.50;;;;;;4967543;28;45962;-63
2022/12/24 03:38:41;;;;;;;12.53;1.40;;;10.40;74.50;;;;;;4975050;28;46390;-62
2022/12/24 03:41:06;;;;;;;5.07;1.20;;;10.40;74.50;;;;;;4970491;28;47288;-63
2022/12/24 03:43:32;;;;;;;3.47;1.37;;;10.40;74.50;;;;;;4966720;28;46480;-63
2022/12/24 03:46:03;;;;;;;14.23;1.50;;;10.50;74.40;;;;;;4970108;28;46481;-63
2022/12/24 03:48:28;;;;;;;4.40;1.70;;;10.50;74.20;;;;;;4970789;28;46380;-63
2022/12/24 03:50:54;;;;;;;2.73;1.10;;;10.50;74.30;;;;;;4968799;28;46429;-62
2022/12/24 03:53:20;;;;;;;2.87;1.20;;;10.50;74.30;;;;;;4968428;28;46637;-63
2022/12/24 03:55:46;;;;;;;2.27;1.23;;;10.50;74.30;;;;;;4965706;28;46364;-62
2022/12/24 03:58:12;;;;;;;5.40;1.80;;;10.50;74.30;;;;;;4970765;28;46445;-62
2022/12/24 04:00:37;;;;;;;4.20;1.03;;;10.50;74.30;;;;;;4971296;28;46439;-63
2022/12/24 04:03:03;;;;;;;7.30;1.63;;;10.50;74.40;;;;;;4973468;28;46432;-62
2022/12/24 04:05:28;;;;;;;4.10;1.20;;;10.50;74.30;;;;;;4973149;28;45892;-62
2022/12/24 04:07:54;;;;;;;2.70;1.20;;;10.40;74.20;;;;;;4968559;28;46453;-63
2022/12/24 04:10:19;;;;;;;4.43;1.70;;;10.40;74.20;;;;;;4971654;28;47392;-64
2022/12/24 04:12:45;;;;;;;3.40;1.13;;;10.40;74.30;;;;;;4970956;28;46312;-63
2022/12/24 04:15:11;;;;;;;1.70;1.00;;;10.40;74.20;;;;;;4973586;28;46384;-63
2022/12/24 04:17:36;;;;;;;4.20;1.30;;;10.40;74.20;;;;;;4971004;28;46464;-64
2022/12/24 04:20:03;;;;;;;2.33;0.90;;;10.40;74.20;;;;;;4971737;28;46338;-63
2022/12/24 04:22:28;;;;;;;2.50;1.13;;;10.40;73.00;;;;;;4971825;28;45942;-63
2022/12/24 04:24:54;;;;;;;8.03;1.03;;;10.40;74.10;;;;;;4973030;28;46422;-63
2022/12/24 04:27:19;;;;;;;4.30;1.13;;;10.40;74.10;;;;;;4970218;28;46002;-63
2022/12/24 04:29:45;;;;;;;4.87;1.20;;;10.40;74.00;;;;;;4970471;28;46427;-63
2022/12/24 04:32:10;;;;;;;2.97;0.97;;;10.40;73.90;;;;;;4971798;28;46339;-63
2022/12/24 04:34:36;;;;;;;3.77;1.00;;;10.40;73.80;;;;;;4970169;28;46463;-63
2022/12/24 04:37:02;;;;;;;3.17;1.53;;;10.40;73.90;;;;;;4975192;28;46847;-62
2022/12/24 04:39:28;;;;;;;4.33;1.30;;;10.40;73.80;;;;;;4974060;28;47963;-63
2022/12/24 04:41:53;;;;;;;3.23;1.17;;;10.40;73.90;;;;;;4970678;28;45855;-61
2022/12/24 04:44:19;;;;;;;15.43;1.33;;;10.40;73.80;;;;;;4969947;28;46504;-62
2022/12/24 04:46:45;;;;;;;6.67;1.33;;;10.40;73.70;;;;;;4971968;28;46562;-62
2022/12/24 04:49:10;;;;;;;5.33;1.60;;;10.40;73.60;;;;;;4971183;28;46815;-62
2022/12/24 04:51:36;;;;;;;3.97;1.50;;;10.40;73.60;;;;;;4969708;28;46691;-62
2022/12/24 04:54:02;;;;;;;4.37;1.10;;;10.40;73.60;;;;;;4970117;28;46438;-63
2022/12/24 04:56:30;;;;;;;3.73;1.23;;;10.40;73.60;;;;;;4971317;28;46349;-63
2022/12/24 04:58:58;;;;;;;4.87;1.20;;;10.40;73.50;;;;;;4986742;28;49067;-63
2022/12/24 05:01:26;;;;;;;3.50;1.27;;;10.40;73.30;;;;;;4968170;28;45939;-65
2022/12/24 05:03:53;;;;;;;6.27;1.30;;;10.40;73.30;;;;;;4969565;28;46554;-63
2022/12/24 05:06:25;;;;;;;3.53;1.07;;;10.40;73.30;;;;;;4969481;28;46580;-62
2022/12/24 05:08:54;;;;;;;8.40;1.20;;;10.40;73.30;;;;;;4969613;28;46784;-62
2022/12/24 05:11:20;;;;;;;3.30;1.27;;;10.40;73.20;;;;;;4971451;28;46483;-62
2022/12/24 05:13:46;;;;;;;6.30;1.13;;;10.30;73.20;;;;;;4973387;28;46408;-62
2022/12/24 05:16:13;;;;;;;10.00;1.73;;;10.40;73.20;;;;;;4970713;28;46605;-63
2022/12/24 05:18:39;;;;;;;13.80;1.40;;;10.40;73.10;;;;;;4971481;28;47587;-62
2022/12/24 05:21:13;;;;;;;4.30;1.27;;;10.40;73.00;;;;;;4972119;28;46382;-62
2022/12/24 05:27:02;;;;;;;4.37;1.20;;;10.30;72.70;;;;;;4970274;28;46737;-63
2022/12/24 05:29:28;;;;;;;3.53;1.00;;;10.30;72.70;;;;;;4908036;28;46651;-64
2022/12/24 05:31:53;;;;;;;3.93;1.40;;;10.40;72.80;;;;;;4908810;28;46777;-62
2022/12/24 05:34:19;;;;;;;7.93;1.70;;;10.30;73.70;;;;;;4937037;28;46456;-63
2022/12/24 05:36:44;;;;;;;5.37;1.30;;;10.30;72.40;;;;;;4973346;28;46539;-64
2022/12/24 05:39:19;;;;;;;5.03;1.47;;;10.30;72.40;;;;;;4968734;28;46381;-63
2022/12/24 05:41:45;;;;;;;3.23;1.20;;;10.30;72.40;;;;;;4973803;28;45887;-63
2022/12/24 05:44:11;;;;;;;4.40;1.17;;;10.30;72.50;;;;;;4983183;28;45936;-63
2022/12/24 05:46:36;;;;;;;6.50;1.97;;;10.30;72.40;;;;;;4966539;28;46464;-63
2022/12/24 05:49:02;;;;;;;3.50;1.30;;;10.30;72.30;;;;;;4970803;28;46344;-63
2022/12/24 05:51:27;;;;;;;2.93;1.00;;;10.40;72.30;;;;;;4974624;28;46440;-62
2022/12/24 05:53:53;;;;;;;7.37;1.53;;;10.30;72.10;;;;;;4970679;28;46903;-63
2022/12/24 05:56:22;;;;;;;4.70;1.50;;;10.30;72.10;;;;;;4968517;28;45979;-64
2022/12/24 05:58:48;;;;;;;5.20;1.30;;;10.30;72.10;;;;;;4972303;28;46723;-64
2022/12/24 06:01:14;;;;;;;7.00;1.63;;;10.30;71.80;;;;;;4969612;28;46414;-62
2022/12/24 06:03:40;;;;;;;7.83;1.70;;;10.40;71.80;;;;;;4969763;28;46771;-62
2022/12/24 06:06:12;;;;;;;3.40;1.43;;;10.30;71.70;;;;;;4971460;28;46671;-63
2022/12/24 06:08:38;;;;;;;9.20;1.40;;;10.30;71.70;;;;;;4971605;28;46519;-63
2022/12/24 06:11:07;;;;;;;5.27;1.40;;;10.30;71.60;;;;;;4973099;28;45885;-63
2022/12/24 06:13:34;;;;;;;6.47;1.50;;;10.30;71.50;;;;;;4970291;28;46918;-62
2022/12/24 06:16:02;;;;;;;4.73;1.23;;;10.30;71.50;;;;;;4972271;28;46618;-63
2022/12/24 06:18:32;;;;;;;7.20;1.70;;;10.30;71.40;;;;;;4969408;28;48555;-63
2022/12/24 06:20:59;;;;;;;3.80;2.47;;;10.30;71.30;;;;;;4965472;28;46444;-63
2022/12/24 06:23:25;;;;;;;5.77;1.10;;;10.30;71.40;;;;;;4970975;28;46329;-63
2022/12/24 06:25:51;;;;;;;3.20;1.40;;;10.30;71.40;;;;;;4975572;28;46023;-62
2022/12/24 06:28:17;;;;;;;6.60;1.43;;;10.30;71.50;;;;;;4970087;28;47394;-63
2022/12/24 06:30:47;;;;;;;3.83;1.40;;;10.20;71.40;;;;;;4967889;28;46362;-63
2022/12/24 06:33:14;;;;;;;2.97;1.20;;;10.20;71.50;;;;;;4969309;28;46421;-64
2022/12/24 06:35:40;;;;;;;4.47;1.70;;;10.20;71.50;;;;;;4968014;28;46348;-63
2022/12/24 06:38:06;;;;;;;4.00;1.40;;;10.20;71.40;;;;;;4967646;28;48114;-64
2022/12/24 06:40:31;;;;;;;3.70;1.00;;;10.20;71.40;;;;;;4969543;28;46388;-64
2022/12/24 06:42:57;;;;;;;7.10;1.17;;;10.30;71.60;;;;;;4968207;28;46464;-63
2022/12/24 06:45:22;;;;;;;2.17;1.00;;;10.20;71.50;;;;;;4968080;28;46484;-64
2022/12/24 06:47:48;;;;;;;2.17;1.20;;;10.20;71.50;;;;;;4968255;28;46551;-63
2022/12/24 06:50:14;;;;;;;2.33;1.10;;;10.10;71.50;;;;;;4970105;28;45960;-63
2022/12/24 06:52:39;;;;;;;8.73;1.40;;;10.10;70.50;;;;;;4968780;28;46622;-63
2022/12/24 06:55:05;;;;;;;3.93;1.10;;;10.10;71.60;;;;;;4972852;28;46339;-62
2022/12/24 06:57:31;;;;;;;3.20;1.00;;;10.10;71.60;;;;;;4969183;28;47845;-64
2022/12/24 06:59:57;;;;;;;5.10;1.07;;;10.10;71.70;;;;;;4967845;28;46899;-63
2022/12/24 07:02:23;;;;;;;7.10;1.77;;;10.10;71.70;;;;;;4965824;28;46414;-64
2022/12/24 07:04:49;;;;;;;3.70;1.20;;;10.10;71.70;;;;;;4969040;28;46037;-64
2022/12/24 07:07:15;;;;;;;3.47;1.00;;;10.10;71.70;;;;;;4967269;28;47600;-62
2022/12/24 07:09:40;;;;;;;2.80;1.00;;;10.10;71.80;;;;;;4966821;28;46310;-63
2022/12/24 07:12:06;;;;;;;2.27;1.00;;;10.10;71.90;;;;;;4968549;28;46411;-62
2022/12/24 07:14:32;;;;;;;3.23;1.20;;;10.00;71.80;;;;;;4970362;28;46525;-63
2022/12/24 07:16:58;;;;;;;4.97;1.80;;;10.00;71.90;;;;;;4967809;28;48617;-63
2022/12/24 07:19:23;;;;;;;3.97;1.10;;;10.00;71.90;;;;;;4970018;28;46476;-65
2022/12/24 07:21:49;;;;;;;4.70;1.30;;;10.00;71.80;;;;;;4971254;28;46443;-63
2022/12/24 07:24:15;;;;;;;4.33;1.20;;;10.00;71.80;;;;;;4969387;28;46558;-63
2022/12/24 07:26:40;;;;;;;6.40;1.20;;;10.00;71.70;;;;;;4966349;28;46658;-64
2022/12/24 07:29:06;;;;;;;4.27;1.00;;;10.00;72.90;;;;;;4965772;28;46522;-63
2022/12/24 07:31:32;;;;;;;3.43;1.03;;;10.00;71.60;;;;;;4965214;28;46220;-62
2022/12/24 07:33:58;;;;;;;7.90;3.33;;;10.00;71.60;;;;;;4971269;28;46391;-63
2022/12/24 07:36:24;;;;;;;18.63;5.03;;;10.10;71.50;;;;;;4974902;28;46378;-62
2022/12/24 07:38:51;;;;;;;7.90;1.77;;;10.10;71.50;;;;;;4970691;28;46428;-63
2022/12/24 07:41:17;;;;;;;7.53;1.27;;;10.10;71.40;;;;;;4971980;28;46487;-62
2022/12/24 07:43:42;;;;;;;2.93;1.00;;;10.10;71.20;;;;;;4969754;28;46447;-62
2022/12/24 07:46:08;;;;;;;3.17;1.10;;;10.10;71.10;;;;;;4969411;28;47188;-63
2022/12/24 07:48:34;;;;;;;2.90;1.30;;;10.10;71.00;;;;;;4969995;28;45990;-62
2022/12/24 07:51:00;;;;;;;3.90;1.40;;;10.10;70.70;;;;;;4968812;28;46923;-62
2022/12/24 07:53:27;;;;;;;5.70;1.67;;;10.20;70.80;;;;;;4971868;28;46009;-63
2022/12/24 07:55:52;;;;;;;5.63;1.50;;;10.10;70.70;;;;;;4972273;28;46607;-64
2022/12/24 07:58:18;;;;;;;3.20;1.10;;;10.10;70.70;;;;;;4972866;28;46380;-63
2022/12/24 08:00:44;;;;;;;8.20;2.30;;;10.10;70.50;;;;;;4983945;28;46288;-62
2022/12/24 08:03:19;;;;;;;10.70;4.70;;;10.10;70.50;;;;;;4971429;28;46431;-62
2022/12/24 08:05:45;;;;;;;5.23;1.80;;;10.10;70.40;;;;;;4970316;28;47708;-64
2022/12/24 08:08:11;;;;;;;3.97;1.30;;;10.20;70.50;;;;;;4974007;28;46456;-63
2022/12/24 08:10:41;;;;;;;3.23;1.00;;;10.20;70.20;;;;;;4971824;28;45906;-64
2022/12/24 08:13:07;;;;;;;6.50;1.00;;;10.30;70.00;;;;;;4971323;28;46545;-63
2022/12/24 08:15:33;;;;;;;3.40;1.00;;;10.30;69.80;;;;;;4981439;28;48020;-63
2022/12/24 08:17:59;;;;;;;4.20;1.30;;;10.30;69.70;;;;;;4969881;28;46496;-63
2022/12/24 08:20:24;;;;;;;2.90;1.07;;;10.30;69.80;;;;;;4966770;28;46529;-62
2022/12/24 08:22:51;;;;;;;9.60;1.40;;;10.30;69.60;;;;;;4969724;28;46537;-63
2022/12/24 08:25:17;;;;;;;3.17;1.00;;;10.30;69.50;;;;;;4967319;28;49264;-63
2022/12/24 08:27:42;;;;;;;2.90;1.00;;;10.30;69.70;;;;;;4968322;28;46336;-63
2022/12/24 08:30:09;;;;;;;2.47;1.03;;;10.30;69.60;;;;;;4969916;28;47596;-63
2022/12/24 08:32:34;;;;;;;2.30;0.83;;;10.30;69.40;;;;;;4973035;28;46532;-65
2022/12/24 08:35:00;;;;;;;4.30;1.30;;;10.30;69.40;;;;;;4968233;28;46168;-62
2022/12/24 08:37:25;;;;;;;2.87;1.20;;;10.30;69.10;;;;;;4972899;28;46475;-63
2022/12/24 08:39:51;;;;;;;2.23;0.90;;;10.40;69.10;;;;;;4968739;28;46490;-65
2022/12/24 08:42:19;;;;;;;4.33;1.17;;;10.40;68.80;;;;;;4970891;28;46472;-63
2022/12/24 08:44:45;;;;;;;4.40;1.63;;;10.40;68.70;;;;;;4971571;28;46636;-62
2022/12/24 08:47:11;;;;;;;2.20;0.93;;;10.50;68.60;;;;;;4974829;28;46492;-62
2022/12/24 08:49:36;;;;;;;3.73;1.30;;;10.50;68.60;;;;;;4970720;28;46528;-65
2022/12/24 08:52:02;;;;;;;4.53;1.30;;;10.50;68.40;;;;;;4970716;28;46356;-63
2022/12/24 08:54:28;;;;;;;2.67;1.30;;;10.50;68.30;;;;;;4970316;28;47084;-64
2022/12/24 08:56:53;;;;;;;3.37;1.10;;;10.60;68.20;;;;;;4972468;28;46464;-62
2022/12/24 08:59:19;;;;;;;5.73;1.63;;;10.70;68.10;;;;;;4969319;28;45872;-63
2022/12/24 09:01:45;;;;;;;7.40;1.57;;;10.70;67.90;;;;;;4966421;28;45992;-62
2022/12/24 09:04:10;;;;;;;3.87;0.93;;;10.70;68.10;;;;;;4981908;28;48105;-62
2022/12/24 09:06:36;;;;;;;6.80;1.07;;;10.70;67.90;;;;;;4965769;28;46497;-63
2022/12/24 09:09:03;;;;;;;2.70;1.13;;;10.70;67.80;;;;;;4969350;28;46022;-64
2022/12/24 09:11:28;;;;;;;4.10;1.47;;;10.80;67.70;;;;;;4968146;28;46530;-63
2022/12/24 09:13:54;;;;;;;4.43;1.30;;;10.80;67.40;;;;;;4966508;28;47217;-63
2022/12/24 09:16:20;;;;;;;5.73;1.23;;;10.90;67.40;;;;;;4970372;28;46795;-62
2022/12/24 09:18:46;;;;;;;3.50;1.20;;;10.90;67.10;;;;;;4968288;28;45899;-63
2022/12/24 09:21:14;;;;;;;2.53;1.10;;;10.90;66.80;;;;;;4967891;28;46531;-63
2022/12/24 09:23:41;;;;;;;12.33;1.47;;;10.90;66.70;;;;;;4970496;28;46419;-63
2022/12/24 09:26:09;;;;;;;4.00;1.17;;;10.90;66.70;;;;;;4969496;28;46424;-64
2022/12/24 09:28:35;;;;;;;2.53;1.03;;;10.90;66.40;;;;;;4968939;28;46492;-63
2022/12/24 09:31:02;;;;;;;4.27;1.37;;;10.90;66.50;;;;;;4970522;28;46767;-63
2022/12/24 09:33:30;;;;;;;5.27;2.73;;;10.90;66.40;;;;;;4966043;28;46540;-64
2022/12/24 09:35:56;;;;;;;11.17;5.67;;;10.90;66.30;;;;;;4968443;28;46530;-62
2022/12/24 09:38:21;;;;;;;8.80;1.30;;;10.80;66.10;;;;;;4969580;28;46572;-64
2022/12/24 09:40:48;;;;;;;8.37;1.70;;;10.80;65.90;;;;;;4969691;28;46028;-63
2022/12/24 09:43:20;;;;;;;9.77;3.03;;;10.90;65.80;;;;;;4967983;28;47202;-64
2022/12/24 09:45:54;;;;;;;4.70;1.70;;;10.90;65.50;;;;;;4964419;28;46514;-61
2022/12/24 09:48:26;;;;;;;4.00;2.30;;;10.90;65.30;;;;;;4968108;28;46446;-63
2022/12/24 09:51:03;;;;;;;4.10;1.53;;;10.90;65.30;;;;;;4969666;28;46400;-63
2022/12/24 09:54:11;;;;;;;3.13;1.07;;;11.00;65.30;;;;;;4968643;28;47343;-63
2022/12/24 09:56:42;;;;;;;6.70;1.17;;;11.00;66.50;;;;;;4967133;28;46526;-63
2022/12/24 09:59:15;;;;;;;3.57;1.20;;;11.00;65.30;;;;;;4970162;28;46516;-63
2022/12/24 10:01:41;;;;;;;3.80;1.37;;;11.00;65.30;;;;;;4971826;28;46423;-63
2022/12/24 10:04:13;;;;;;;7.07;1.20;;;10.90;65.30;;;;;;4968508;28;46695;-63
2022/12/24 10:06:42;;;;;;;2.93;1.20;;;10.80;65.20;;;;;;4967066;28;46460;-63
2022/12/24 10:09:23;;;;;;;7.80;1.37;;;10.70;65.40;;;;;;4967358;28;46421;-64
2022/12/24 10:11:52;;;;;;;3.70;1.10;;;10.50;65.80;;;;;;4972783;28;46483;-63
2022/12/24 10:14:32;;;;;;;2.70;1.00;;;10.40;66.20;;;;;;4967159;28;46879;-63
2022/12/24 10:17:01;;;;;;;3.80;1.70;;;10.30;66.40;;;;;;4965853;28;46447;-64
2022/12/24 10:19:55;;;;;;;3.70;1.83;;;10.20;66.40;;;;;;4969070;28;46317;-62
2022/12/24 10:22:47;;;;;;;3.13;1.50;;;10.20;66.50;;;;;;4981555;28;46599;-63
2022/12/24 10:25:23;;;;;;;3.80;1.70;;;10.10;67.60;;;;;;4966213;28;47250;-63
2022/12/24 10:27:51;;;;;;;4.63;1.97;;;10.10;66.60;;;;;;4968286;28;46368;-62
2022/12/24 10:30:22;;;;;;;5.10;1.50;;;10.00;66.40;;;;;;4968944;28;46399;-63
2022/12/24 10:32:50;;;;;;;3.67;1.07;;;10.00;66.20;;;;;;4968639;28;46575;-64
2022/12/24 10:35:15;;;;;;;2.00;1.10;;;10.10;66.20;;;;;;4967825;28;47298;-66
2022/12/24 10:37:43;;;;;;;9.67;4.13;;;10.10;66.00;;;;;;4971219;28;46407;-63
2022/12/24 10:40:43;;;;;;;5.70;1.40;;;10.20;65.80;;;;;;4969764;28;46410;-63
2022/12/24 10:43:29;;;;;;;5.77;1.30;;;10.20;65.70;;;;;;4970440;28;46542;-62
2022/12/24 10:45:55;;;;;;;10.33;1.53;;;10.10;65.90;;;;;;4971211;28;48588;-63
2022/12/24 10:48:37;;;;;;;2.57;1.50;;;10.00;66.10;;;;;;4968556;28;45926;-63
2022/12/24 10:51:13;;;;;;;4.10;1.23;;;10.00;66.10;;;;;;4971327;28;46504;-62
2022/12/24 10:53:41;;;;;;;3.57;1.20;;;10.10;65.90;;;;;;4967158;28;46518;-64
2022/12/24 10:56:11;;;;;;;3.20;1.33;;;10.30;65.60;;;;;;4966481;28;46422;-64
2022/12/24 10:58:49;;;;;;;4.33;1.30;;;10.40;64.90;;;;;;4969135;28;46403;-64
2022/12/24 11:01:15;;;;;;;6.50;2.27;;;10.50;64.90;;;;;;4965058;28;45769;-63
2022/12/24 11:03:41;;;;;;;4.13;1.47;;;10.60;65.00;;;;;;4964752;28;46380;-62
2022/12/24 11:06:07;;;;;;;3.93;1.10;;;10.60;65.00;;;;;;4968879;28;46723;-62
2022/12/24 11:08:34;;;;;;;15.20;7.80;;;10.60;65.00;;;;;;4968238;28;46808;-62
2022/12/24 11:11:19;;;;;;;4.30;1.20;;;10.60;65.00;;;;;;4970657;28;45904;-63
2022/12/24 11:13:55;;;;;;;4.03;1.23;;;10.60;65.00;;;;;;4972992;28;46478;-62
2022/12/24 11:16:29;;;;;;;4.97;1.30;;;10.70;65.10;;;;;;4968940;28;47948;-64
2022/12/24 11:19:00;;;;;;;3.70;1.30;;;10.70;65.10;;;;;;4972266;28;46516;-63
2022/12/24 11:21:31;;;;;;;6.00;1.93;;;10.80;65.10;;;;;;4986516;28;46529;-64
2022/12/24 11:24:01;;;;;;;2.50;1.03;;;10.80;65.10;;;;;;4978214;28;45885;-65
2022/12/24 11:26:29;;;;;;;5.37;1.53;;;10.90;64.70;;;;;;4973589;28;47354;-65
2022/12/24 11:29:07;;;;;;;2.83;1.23;;;10.90;64.70;;;;;;4973632;28;46294;-66
2022/12/24 11:31:36;;;;;;;2.37;1.10;;;10.90;65.20;;;;;;4971530;28;46539;-66
2022/12/24 11:34:29;;;;;;;5.10;1.40;;;10.80;65.20;;;;;;4969666;28;46785;-66
2022/12/24 11:37:17;;;;;;;1.60;0.90;;;10.70;65.10;;;;;;4973293;28;46398;-66
2022/12/24 11:39:54;;;;;;;2.60;1.10;;;10.70;65.10;;;;;;4969778;28;46490;-66
2022/12/24 11:42:29;;;;;;;4.50;1.20;;;10.70;65.10;;;;;;4971630;28;46465;-66
2022/12/24 11:44:56;;;;;;;4.43;1.40;;;10.60;65.00;;;;;;4971390;28;46459;-64
2022/12/24 11:47:35;;;;;;;2.83;1.30;;;10.60;65.00;;;;;;4976242;28;46585;-65
2022/12/24 11:50:20;;;;;;;4.93;1.17;;;10.60;65.00;;;;;;4971906;28;46417;-65
2022/12/24 11:52:55;;;;;;;12.80;4.50;;;10.80;64.10;;;;;;4974274;28;46590;-65
2022/12/24 11:55:32;;;;;;;4.60;2.17;;;10.80;65.20;;;;;;4969844;28;46735;-65
2022/12/24 11:58:02;;;;;;;5.20;1.40;;;11.00;64.90;;;;;;4969526;28;46698;-66
2022/12/24 12:00:28;;;;;;;6.20;1.70;;;11.20;64.30;;;;;;4967995;28;46501;-66
2022/12/24 12:02:57;;;;;;;6.40;3.17;;;11.20;64.10;;;;;;4971356;28;46496;-65
2022/12/24 12:05:28;;;;;;;8.43;3.77;;;11.30;63.80;;;;;;4968409;28;46034;-65
2022/12/24 12:08:03;;;;;;;12.00;5.10;;;11.40;63.60;;;;;;4969149;28;46747;-64
2022/12/24 12:10:35;;;;;;;15.70;8.70;;;11.40;63.50;;;;;;4971324;28;45877;-66
2022/12/24 12:13:08;;;;;;;2.80;1.37;;;11.40;63.50;;;;;;4972556;28;45943;-65
2022/12/24 12:15:39;;;;;;;4.37;1.40;;;11.30;63.50;;;;;;4971156;28;47113;-65
2022/12/24 12:18:18;;;;;;;4.20;1.60;;;11.30;63.70;;;;;;4969698;28;47264;-64
2022/12/24 12:20:52;;;;;;;2.70;1.20;;;11.20;64.10;;;;;;4971563;28;46674;-64
2022/12/24 12:24:07;;;;;;;3.43;1.20;;;11.10;64.20;;;;;;4967829;28;45915;-64
2022/12/24 12:26:34;;;;;;;6.67;1.67;;;10.90;64.50;;;;;;4972829;28;46590;-64
2022/12/24 12:29:17;;;;;;;2.63;1.20;;;10.90;64.90;;;;;;4971101;28;47498;-65
2022/12/24 12:31:50;;;;;;;3.70;1.20;;;10.90;64.80;;;;;;4987725;28;46514;-65
2022/12/24 12:34:33;;;;;;;7.87;1.40;;;10.80;65.10;;;;;;4970571;28;46404;-64
2022/12/24 12:37:11;;;;;;;2.27;0.87;;;10.70;66.30;;;;;;4975110;28;46370;-65
2022/12/24 12:39:37;;;;;;;4.83;1.50;;;10.70;65.10;;;;;;4968722;28;46618;-63
2022/12/24 12:42:05;;;;;;;2.57;1.50;;;10.60;65.10;;;;;;4970045;28;46314;-63
2022/12/24 12:45:05;;;;;;;3.80;1.70;;;10.70;65.10;;;;;;4970495;28;46443;-64
2022/12/24 12:48:22;;;;;;;3.40;1.50;;;10.70;65.10;;;;;;4973951;28;46491;-64
2022/12/24 12:50:56;;;;;;;5.57;1.50;;;10.70;65.10;;;;;;4944088;28;46596;-64
2022/12/24 12:53:52;;;;;;;5.53;1.57;;;10.60;65.00;;;;;;4972498;28;46698;-65
2022/12/24 12:56:38;;;;;;;17.23;6.80;;;10.50;64.90;;;;;;4972222;28;46475;-63
2022/12/24 12:59:25;;;;;;;24.57;7.47;;;10.50;64.90;;;;;;4968121;28;45950;-63
2022/12/24 13:02:12;;;;;;;25.60;7.33;;;10.50;64.80;;;;;;4969920;28;46998;-64
2022/12/24 13:04:56;;;;;;;6.40;2.43;;;10.50;64.90;;;;;;4969510;28;46670;-64
2022/12/24 13:07:45;;;;;;;9.53;2.83;;;10.60;65.00;;;;;;4971227;28;46433;-64